createdAt,value
2023-01-18T00:00:53.229Z,84.35
2023-01-18T00:01:33.321Z,83.88
2023-01-18T00:02:13.297Z,83.82
2023-01-18T00:03:01.269Z,84.25
2023-01-18T00:03:55.222Z,84.29
2023-01-18T00:04:49.247Z,84.28
2023-01-18T00:05:47.197Z,84.57
2023-01-18T00:06:41.240Z,84.16
2023-01-18T00:07:35.209Z,84.95
2023-01-18T00:08:23.271Z,84.66
2023-01-18T00:09:00.258Z,84.61
2023-01-18T00:09:47.210Z,85.42
2023-01-18T00:10:22.365Z,85.32
2023-01-18T00:11:18.213Z,84.72
2023-01-18T00:11:52.290Z,85.01
2023-01-18T00:12:40.192Z,85.02
2023-01-18T00:13:14.286Z,85.04
2023-01-18T00:13:55.273Z,85.00
2023-01-18T00:14:35.298Z,84.87
2023-01-18T00:15:16.210Z,84.95
2023-01-18T00:15:56.341Z,85.22
2023-01-18T00:16:39.272Z,84.86
2023-01-18T00:17:19.249Z,84.55
2023-01-18T00:17:59.215Z,84.92
2023-01-18T00:18:39.255Z,85.44
2023-01-18T00:19:20.260Z,85.57
2023-01-18T00:20:00.265Z,85.50
2023-01-18T00:20:40.205Z,85.16
2023-01-18T00:21:20.259Z,85.79
2023-01-18T00:22:02.202Z,86.14
2023-01-18T00:22:42.248Z,85.68
2023-01-18T00:23:22.189Z,85.07
2023-01-18T00:24:03.250Z,85.51
2023-01-18T00:24:43.221Z,85.81
2023-01-18T00:25:24.229Z,85.42
2023-01-18T00:26:15.227Z,85.23
2023-01-18T00:26:58.251Z,85.49
2023-01-18T00:27:38.196Z,85.13
2023-01-18T00:28:18.234Z,85.45
2023-01-18T00:28:58.198Z,85.48
2023-01-18T00:29:38.263Z,85.13
2023-01-18T00:30:20.202Z,85.40
2023-01-18T00:31:00.278Z,85.47
2023-01-18T00:31:40.228Z,85.01
2023-01-18T00:32:20.235Z,85.27
2023-01-18T00:33:04.216Z,85.53
2023-01-18T00:33:44.461Z,85.54
2023-01-18T00:34:24.185Z,85.25
2023-01-18T00:35:07.312Z,85.07
2023-01-18T00:35:48.202Z,85.62
2023-01-18T00:36:28.252Z,85.61
2023-01-18T00:37:08.175Z,85.01
2023-01-18T00:37:49.308Z,85.24
2023-01-18T00:38:29.170Z,85.57
2023-01-18T00:39:09.252Z,85.26
2023-01-18T00:39:49.186Z,85.23
2023-01-18T00:40:30.194Z,85.34
2023-01-18T00:41:10.206Z,85.22
2023-01-18T00:42:09.123Z,86.10
2023-01-18T00:43:08.186Z,86.38
2023-01-18T00:43:48.219Z,86.06
2023-01-18T00:44:28.178Z,86.73
2023-01-18T00:45:08.243Z,86.99
2023-01-18T00:45:49.280Z,86.84
2023-01-18T00:46:34.222Z,86.83
2023-01-18T00:47:08.242Z,86.56
2023-01-18T00:47:55.168Z,86.58
2023-01-18T00:48:29.293Z,86.37
2023-01-18T00:49:16.185Z,86.32
2023-01-18T00:49:50.241Z,86.24
2023-01-18T00:50:37.155Z,86.57
2023-01-18T00:51:11.206Z,86.03
2023-01-18T00:51:58.900Z,86.44
2023-01-18T00:52:34.697Z,86.35
2023-01-18T00:53:21.182Z,86.59
2023-01-18T00:53:56.231Z,86.55
2023-01-18T00:54:43.164Z,86.90
2023-01-18T00:55:17.526Z,86.75
2023-01-18T00:56:04.157Z,87.13
2023-01-18T00:56:38.254Z,87.36
2023-01-18T00:57:18.171Z,86.78
2023-01-18T00:57:58.250Z,86.86
2023-01-18T00:58:38.189Z,87.92
2023-01-18T00:59:18.234Z,86.98
2023-01-18T00:59:59.169Z,86.87
2023-01-18T01:00:39.268Z,86.86
2023-01-18T01:01:21.245Z,86.73
2023-01-18T01:02:01.361Z,86.55
2023-01-18T01:02:45.219Z,86.74
2023-01-18T01:03:27.211Z,86.51
2023-01-18T01:04:26.166Z,86.31
2023-01-18T01:05:24.735Z,85.89
2023-01-18T01:06:24.157Z,86.62
2023-01-18T01:07:04.256Z,86.29
2023-01-18T01:07:44.152Z,86.12
2023-01-18T01:08:24.166Z,86.20
2023-01-18T01:08:58.190Z,86.09
2023-01-18T01:09:45.159Z,86.20
2023-01-18T01:10:19.289Z,86.11
2023-01-18T01:11:17.154Z,86.32
2023-01-18T01:12:10.977Z,85.90
2023-01-18T01:13:17.176Z,86.31
2023-01-18T01:14:09.810Z,86.52
2023-01-18T01:15:16.151Z,86.02
2023-01-18T01:16:08.656Z,86.60
2023-01-18T01:17:14.128Z,86.14
2023-01-18T01:18:06.869Z,86.27
2023-01-18T01:19:06.189Z,86.11
2023-01-18T01:20:04.913Z,86.25
2023-01-18T01:21:04.142Z,86.63
2023-01-18T01:22:03.988Z,87.03
2023-01-18T01:23:03.124Z,86.90
2023-01-18T01:24:01.607Z,87.37
2023-01-18T01:25:01.193Z,87.21
2023-01-18T01:26:01.733Z,87.61
2023-01-18T01:26:42.143Z,87.38
2023-01-18T01:27:22.173Z,87.77
2023-01-18T01:28:03.130Z,87.28
2023-01-18T01:28:51.171Z,87.26
2023-01-18T01:29:31.120Z,87.47
2023-01-18T01:30:19.146Z,87.57
2023-01-18T01:31:15.160Z,87.24
2023-01-18T01:32:10.148Z,87.52
2023-01-18T01:33:04.136Z,87.33
2023-01-18T01:33:59.121Z,86.83
2023-01-18T01:34:53.158Z,86.82
2023-01-18T01:35:40.153Z,86.88
2023-01-18T01:36:20.191Z,87.07
2023-01-18T01:37:07.108Z,86.48
2023-01-18T01:37:41.214Z,86.74
2023-01-18T01:38:28.125Z,86.48
2023-01-18T01:39:02.188Z,87.02
2023-01-18T01:39:49.108Z,87.35
2023-01-18T01:40:23.599Z,87.25
2023-01-18T01:41:11.134Z,87.72
2023-01-18T01:42:05.126Z,88.28
2023-01-18T01:42:59.505Z,88.24
2023-01-18T01:43:57.103Z,88.47
2023-01-18T01:44:58.126Z,88.07
2023-01-18T01:45:52.126Z,88.85
2023-01-18T01:46:47.128Z,88.38
2023-01-18T01:47:39.218Z,88.22
2023-01-18T01:48:19.100Z,88.34
2023-01-18T01:49:09.141Z,88.55
2023-01-18T01:49:54.115Z,88.66
2023-01-18T01:50:43.168Z,88.65
2023-01-18T01:51:25.116Z,88.43
2023-01-18T01:52:08.130Z,88.94
2023-01-18T01:52:44.857Z,88.76
2023-01-18T01:53:32.116Z,88.57
2023-01-18T01:54:10.321Z,89.84
2023-01-18T01:55:13.096Z,89.95
2023-01-18T01:55:47.156Z,89.72
2023-01-18T01:56:34.114Z,89.12
2023-01-18T01:57:23.146Z,88.65
2023-01-18T01:58:26.145Z,88.63
2023-01-18T01:59:22.121Z,88.28
2023-01-18T02:00:22.113Z,88.26
2023-01-18T02:01:16.240Z,88.28
2023-01-18T02:02:11.229Z,88.50
2023-01-18T02:02:55.343Z,89.09
2023-01-18T02:03:38.160Z,88.61
2023-01-18T02:04:19.122Z,89.20
2023-01-18T02:05:00.147Z,88.77
2023-01-18T02:05:54.093Z,88.16
2023-01-18T02:06:41.177Z,88.54
2023-01-18T02:07:22.095Z,88.39
2023-01-18T02:08:18.123Z,88.31
2023-01-18T02:09:14.081Z,87.91
2023-01-18T02:10:10.126Z,87.87
2023-01-18T02:11:06.088Z,88.04
2023-01-18T02:12:00.121Z,88.33
2023-01-18T02:12:56.312Z,88.37
2023-01-18T02:13:43.108Z,87.74
2023-01-18T02:14:20.142Z,87.64
2023-01-18T02:15:07.082Z,88.37
2023-01-18T02:15:51.117Z,87.98
2023-01-18T02:17:11.133Z,88.87
2023-01-18T02:18:29.176Z,87.90
2023-01-18T02:19:46.104Z,89.63
2023-01-18T02:21:23.136Z,90.82
2023-01-18T02:22:15.204Z,90.68
2023-01-18T02:23:03.124Z,91.16
2023-01-18T02:24:38.082Z,91.31
2023-01-18T02:25:59.118Z,92.13
2023-01-18T02:27:04.257Z,92.64
2023-01-18T02:27:58.060Z,92.14
2023-01-18T02:28:40.122Z,92.57
2023-01-18T02:29:49.121Z,93.04
2023-01-18T02:30:48.172Z,93.93
2023-01-18T02:31:42.131Z,94.19
2023-01-18T02:32:36.123Z,93.29
2023-01-18T02:33:48.058Z,92.59
2023-01-18T02:34:47.104Z,93.27
2023-01-18T02:35:59.056Z,92.50
2023-01-18T02:37:05.082Z,92.76
2023-01-18T02:38:24.061Z,92.87
2023-01-18T02:39:30.067Z,93.17
2023-01-18T02:40:49.033Z,93.29
2023-01-18T02:42:12.049Z,93.66
2023-01-18T02:43:26.059Z,93.75
2023-01-18T02:44:38.063Z,94.03
2023-01-18T02:46:11.150Z,92.74
2023-01-18T02:47:05.084Z,94.35
2023-01-18T02:47:45.067Z,93.43
2023-01-18T02:48:31.202Z,93.43
2023-01-18T02:49:34.045Z,93.36
2023-01-18T02:50:15.128Z,92.95
2023-01-18T02:50:56.041Z,92.82
2023-01-18T02:51:36.436Z,92.87
2023-01-18T02:52:47.071Z,92.64
2023-01-18T02:53:27.100Z,92.41
2023-01-18T02:54:09.021Z,91.98
2023-01-18T02:54:49.078Z,92.21
2023-01-18T02:55:43.057Z,92.03
2023-01-18T02:56:31.111Z,92.01
2023-01-18T02:57:18.040Z,92.23
2023-01-18T02:58:34.047Z,92.20
2023-01-18T02:59:30.600Z,92.22
2023-01-18T03:00:21.038Z,92.15
2023-01-18T03:01:14.178Z,92.29
2023-01-18T03:02:28.071Z,91.89
2023-01-18T03:03:03.239Z,91.87
2023-01-18T03:03:53.063Z,91.73
2023-01-18T03:04:33.071Z,91.34
2023-01-18T03:05:21.019Z,92.17
2023-01-18T03:05:55.070Z,91.77
2023-01-18T03:06:42.023Z,91.81
2023-01-18T03:07:24.072Z,91.54
2023-01-18T03:08:26.020Z,91.67
2023-01-18T03:09:08.068Z,91.84
2023-01-18T03:10:02.033Z,91.65
2023-01-18T03:11:17.028Z,91.56
2023-01-18T03:12:24.032Z,92.08
2023-01-18T03:13:30.007Z,92.13
2023-01-18T03:14:56.039Z,91.80
2023-01-18T03:16:10.096Z,91.58
2023-01-18T03:17:15.031Z,91.57
2023-01-18T03:18:18.030Z,91.63
2023-01-18T03:19:36.013Z,91.82
2023-01-18T03:20:21.015Z,91.78
2023-01-18T03:21:05.420Z,91.57
2023-01-18T03:21:56.026Z,91.39
2023-01-18T03:23:23.716Z,91.31
2023-01-18T03:24:07.021Z,91.59
2023-01-18T03:24:47.122Z,91.93
2023-01-18T03:25:33.059Z,91.12
2023-01-18T03:26:20.099Z,91.90
2023-01-18T03:27:01.047Z,91.25
2023-01-18T03:28:00.768Z,91.50
2023-01-18T03:29:01.022Z,91.10
2023-01-18T03:29:59.491Z,91.73
2023-01-18T03:30:59.100Z,91.50
2023-01-18T03:32:12.872Z,91.91
2023-01-18T03:33:12.011Z,92.07
2023-01-18T03:34:00.106Z,91.64
2023-01-18T03:34:47.013Z,91.95
2023-01-18T03:35:29.147Z,91.60
2023-01-18T03:36:10.015Z,91.41
2023-01-18T03:36:54.067Z,91.87
2023-01-18T03:37:54.013Z,91.71
2023-01-18T03:38:49.024Z,91.64
2023-01-18T03:40:02.999Z,92.11
2023-01-18T03:40:57.010Z,91.84
2023-01-18T03:41:41.026Z,91.93
2023-01-18T03:42:36.713Z,92.09
2023-01-18T03:43:26.009Z,92.14
2023-01-18T03:44:14.039Z,92.62
2023-01-18T03:45:16.997Z,92.78
2023-01-18T03:45:59.046Z,92.70
2023-01-18T03:46:40.028Z,92.54
2023-01-18T03:47:22.994Z,93.25
2023-01-18T03:47:57.059Z,92.75
2023-01-18T03:48:43.983Z,93.21
2023-01-18T03:49:25.062Z,92.99
2023-01-18T03:50:04.984Z,92.97
2023-01-18T03:51:33.040Z,93.41
2023-01-18T03:52:33.001Z,93.38
2023-01-18T03:53:20.060Z,94.13
2023-01-18T03:54:15.995Z,94.14
2023-01-18T03:55:09.066Z,94.29
2023-01-18T03:55:56.983Z,94.59
2023-01-18T03:56:55.057Z,94.56
2023-01-18T03:57:57.001Z,93.93
2023-01-18T03:58:43.047Z,93.93
2023-01-18T03:59:22.968Z,93.93
2023-01-18T04:00:05.924Z,93.50
2023-01-18T04:00:47.061Z,93.49
2023-01-18T04:01:28.183Z,93.24
2023-01-18T04:02:11.002Z,93.40
2023-01-18T04:02:53.068Z,93.47
2023-01-18T04:03:32.999Z,93.04
2023-01-18T04:04:13.028Z,93.52
2023-01-18T04:04:55.105Z,93.78
2023-01-18T04:05:36.033Z,94.17
2023-01-18T04:06:16.030Z,94.05
2023-01-18T04:06:57.867Z,93.71
2023-01-18T04:07:38.981Z,94.11
2023-01-18T04:08:21.904Z,93.97
2023-01-18T04:09:01.979Z,93.93
2023-01-18T04:09:43.300Z,94.23
2023-01-18T04:10:23.960Z,93.62
2023-01-18T04:11:04.074Z,93.99
2023-01-18T04:11:43.949Z,93.82
2023-01-18T04:12:24.995Z,93.91
2023-01-18T04:13:04.950Z,93.96
2023-01-18T04:13:46.318Z,93.72
2023-01-18T04:14:25.977Z,93.57
2023-01-18T04:15:06.111Z,93.96
2023-01-18T04:15:46.020Z,93.91
2023-01-18T04:16:26.011Z,93.55
2023-01-18T04:17:05.951Z,93.85
2023-01-18T04:17:49.711Z,93.46
2023-01-18T04:18:36.946Z,93.57
2023-01-18T04:19:11.235Z,93.62
2023-01-18T04:19:50.970Z,93.42
2023-01-18T04:20:31.076Z,93.60
2023-01-18T04:21:11.983Z,93.22
2023-01-18T04:21:52.021Z,93.07
2023-01-18T04:22:31.970Z,93.37
2023-01-18T04:23:12.049Z,93.36
2023-01-18T04:23:51.975Z,93.79
2023-01-18T04:24:32.078Z,94.19
2023-01-18T04:25:12.963Z,93.80
2023-01-18T04:25:56.977Z,94.08
2023-01-18T04:26:36.931Z,94.38
2023-01-18T04:27:17.014Z,94.35
2023-01-18T04:27:56.960Z,94.45
2023-01-18T04:28:36.989Z,94.17
2023-01-18T04:29:16.953Z,94.21
2023-01-18T04:29:58.456Z,94.57
2023-01-18T04:31:53.010Z,94.46
2023-01-18T04:32:33.045Z,94.48
2023-01-18T04:33:12.926Z,94.35
2023-01-18T04:33:53.024Z,94.13
2023-01-18T04:34:32.976Z,94.22
2023-01-18T04:35:13.992Z,94.33
2023-01-18T04:35:54.956Z,94.18
2023-01-18T04:36:34.977Z,93.93
2023-01-18T04:37:15.954Z,93.86
2023-01-18T04:37:58.991Z,93.59
2023-01-18T04:38:38.933Z,93.95
2023-01-18T04:39:19.967Z,93.98
2023-01-18T04:39:59.944Z,94.13
2023-01-18T04:40:40.011Z,93.92
2023-01-18T04:41:19.933Z,94.74
2023-01-18T04:42:00.066Z,94.54
2023-01-18T04:42:40.941Z,94.45
2023-01-18T04:43:21.052Z,94.74
2023-01-18T04:44:00.936Z,94.96
2023-01-18T04:44:41.030Z,94.82
2023-01-18T04:45:20.912Z,94.74
2023-01-18T04:46:01.953Z,94.92
2023-01-18T04:46:44.960Z,95.59
2023-01-18T04:47:24.980Z,95.21
2023-01-18T04:48:05.052Z,95.11
2023-01-18T04:48:45.049Z,95.83
2023-01-18T04:49:24.926Z,95.14
2023-01-18T04:50:05.591Z,96.11
2023-01-18T04:50:45.912Z,95.75
2023-01-18T04:51:27.247Z,95.48
2023-01-18T04:52:06.942Z,95.93
2023-01-18T04:52:46.956Z,96.28
2023-01-18T04:53:27.955Z,96.56
2023-01-18T04:54:07.968Z,95.97
2023-01-18T04:54:47.947Z,96.84
2023-01-18T04:55:27.987Z,96.94
2023-01-18T04:56:07.919Z,96.83
2023-01-18T04:56:47.997Z,96.97
2023-01-18T04:57:27.923Z,96.45
2023-01-18T04:58:07.956Z,96.67
2023-01-18T04:58:48.927Z,97.23
2023-01-18T04:59:28.988Z,96.81
2023-01-18T05:00:09.956Z,97.22
2023-01-18T05:00:50.016Z,97.29
2023-01-18T05:01:31.037Z,97.46
2023-01-18T05:02:12.019Z,97.41
2023-01-18T05:02:52.916Z,97.27
2023-01-18T05:03:38.037Z,97.11
2023-01-18T05:04:17.991Z,97.20
2023-01-18T05:04:59.979Z,97.77
2023-01-18T05:05:40.910Z,97.70
2023-01-18T05:06:23.735Z,97.84
2023-01-18T05:07:03.921Z,97.79
2023-01-18T05:07:43.965Z,97.93
2023-01-18T05:08:23.914Z,97.86
2023-01-18T05:09:03.943Z,97.83
2023-01-18T05:09:43.923Z,97.82
2023-01-18T05:10:24.019Z,97.27
2023-01-18T05:11:12.904Z,97.59
2023-01-18T05:11:53.011Z,97.49
2023-01-18T05:12:33.909Z,97.18
2023-01-18T05:13:13.980Z,97.53
2023-01-18T05:13:53.898Z,98.05
2023-01-18T05:14:33.947Z,97.76
2023-01-18T05:15:14.905Z,97.88
2023-01-18T05:15:54.971Z,98.39
2023-01-18T05:16:34.954Z,98.06
2023-01-18T05:17:14.924Z,98.40
2023-01-18T05:17:54.886Z,98.56
2023-01-18T05:18:50.306Z,98.00
2023-01-18T05:19:43.911Z,98.11
2023-01-18T05:20:30.946Z,98.83
2023-01-18T05:21:04.941Z,98.30
2023-01-18T05:21:51.890Z,99.27
2023-01-18T05:22:25.953Z,98.88
2023-01-18T05:23:16.885Z,98.80
2023-01-18T05:23:50.929Z,98.55
2023-01-18T05:24:38.880Z,98.88
2023-01-18T05:25:12.921Z,99.05
2023-01-18T05:25:52.942Z,99.68
2023-01-18T05:26:32.945Z,99.28
2023-01-18T05:27:13.902Z,99.70
2023-01-18T05:27:54.017Z,99.76
2023-01-18T05:28:34.874Z,99.22
2023-01-18T05:29:14.925Z,99.21
2023-01-18T05:29:54.866Z,98.93
2023-01-18T05:30:34.926Z,99.36
2023-01-18T05:31:15.925Z,99.45
2023-01-18T05:31:55.946Z,99.44
2023-01-18T05:32:35.886Z,99.52
2023-01-18T05:33:16.966Z,100.00
2023-01-18T05:33:59.886Z,99.79
2023-01-18T05:34:39.925Z,100.00
2023-01-18T05:35:20.872Z,100.00
2023-01-18T05:36:01.937Z,99.95
2023-01-18T05:36:41.912Z,99.99
2023-01-18T05:37:21.916Z,99.73
2023-01-18T05:38:01.880Z,99.95
2023-01-18T05:38:42.020Z,100.00
2023-01-18T05:39:22.881Z,100.00
2023-01-18T05:40:02.948Z,100.00
2023-01-18T05:40:42.877Z,99.90
2023-01-18T05:41:22.943Z,100.00
2023-01-18T05:42:02.899Z,100.00
2023-01-18T05:42:43.419Z,100.00
2023-01-18T05:43:28.866Z,100.00
2023-01-18T05:44:11.797Z,100.00
2023-01-18T05:44:51.862Z,100.00
2023-01-18T05:45:32.021Z,100.00
2023-01-18T05:46:12.949Z,100.00
2023-01-18T05:46:52.927Z,100.00
2023-01-18T05:47:34.080Z,100.00
2023-01-18T05:48:13.921Z,100.00
2023-01-18T05:48:53.845Z,100.00
2023-01-18T05:49:35.912Z,99.58
2023-01-18T05:50:16.852Z,99.83
2023-01-18T05:50:56.959Z,99.82
2023-01-18T05:51:37.919Z,99.91
2023-01-18T05:52:17.959Z,99.16
2023-01-18T05:52:58.241Z,99.33
2023-01-18T05:53:39.739Z,99.78
2023-01-18T05:54:19.859Z,99.35
2023-01-18T05:54:59.914Z,98.88
2023-01-18T05:55:40.853Z,98.53
2023-01-18T05:56:20.919Z,99.21
2023-01-18T05:57:00.838Z,98.96
2023-01-18T05:57:40.901Z,99.57
2023-01-18T05:58:20.875Z,98.67
2023-01-18T05:59:00.913Z,98.75
2023-01-18T05:59:41.850Z,98.39
2023-01-18T06:00:21.911Z,98.69
2023-01-18T06:01:02.908Z,98.01
2023-01-18T06:01:42.971Z,98.67
2023-01-18T06:02:24.846Z,98.27
2023-01-18T06:03:05.893Z,99.04
2023-01-18T06:03:46.853Z,98.75
2023-01-18T06:04:26.957Z,98.39
2023-01-18T06:05:06.865Z,98.46
2023-01-18T06:05:46.918Z,98.65
2023-01-18T06:06:26.859Z,98.14
2023-01-18T06:07:07.083Z,97.94
2023-01-18T06:07:48.840Z,97.51
2023-01-18T06:08:28.925Z,97.89
2023-01-18T06:09:09.870Z,97.75
2023-01-18T06:09:49.959Z,97.94
2023-01-18T06:10:29.835Z,97.92
2023-01-18T06:11:10.922Z,97.86
2023-01-18T06:11:51.849Z,97.10
2023-01-18T06:12:31.901Z,97.57
2023-01-18T06:13:12.842Z,97.16
2023-01-18T06:13:52.905Z,97.89
2023-01-18T06:14:32.895Z,97.83
2023-01-18T06:15:15.486Z,98.46
2023-01-18T06:15:56.835Z,98.05
2023-01-18T06:16:38.935Z,98.34
2023-01-18T06:17:18.831Z,98.21
2023-01-18T06:17:59.494Z,99.75
2023-01-18T06:18:40.835Z,99.18
2023-01-18T06:19:20.895Z,98.71
2023-01-18T06:20:01.877Z,99.00
2023-01-18T06:20:41.880Z,99.39
2023-01-18T06:21:23.046Z,98.59
2023-01-18T06:22:02.896Z,98.59
2023-01-18T06:22:42.808Z,98.42
2023-01-18T06:23:22.871Z,98.90
2023-01-18T06:24:03.849Z,99.07
2023-01-18T06:24:43.942Z,98.45
2023-01-18T06:25:24.861Z,98.66
2023-01-18T06:26:04.966Z,98.90
2023-01-18T06:26:45.824Z,98.84
2023-01-18T06:27:25.902Z,98.36
2023-01-18T06:28:06.811Z,99.37
2023-01-18T06:28:46.886Z,98.74
2023-01-18T06:29:26.812Z,99.60
2023-01-18T06:30:06.878Z,99.07
2023-01-18T06:30:48.858Z,99.31
2023-01-18T06:31:28.914Z,99.38
2023-01-18T06:32:09.853Z,99.08
2023-01-18T06:32:50.400Z,99.52
2023-01-18T06:33:31.826Z,99.19
2023-01-18T06:34:11.872Z,99.01
2023-01-18T06:34:51.814Z,99.12
2023-01-18T06:35:31.949Z,99.56
2023-01-18T06:36:12.842Z,99.86
2023-01-18T06:36:52.893Z,99.73
2023-01-18T06:37:32.853Z,99.93
2023-01-18T06:38:13.954Z,99.63
2023-01-18T06:38:53.919Z,100.00
2023-01-18T06:39:33.890Z,99.94
2023-01-18T06:40:15.798Z,99.87
2023-01-18T06:40:55.857Z,99.58
2023-01-18T06:41:36.850Z,99.99
2023-01-18T06:42:16.873Z,99.85
2023-01-18T06:42:57.294Z,100.00
2023-01-18T06:43:37.878Z,99.72
2023-01-18T06:44:18.863Z,99.58
2023-01-18T06:44:59.621Z,99.94
2023-01-18T06:45:40.898Z,99.79
2023-01-18T06:46:20.987Z,99.36
2023-01-18T06:47:01.853Z,99.80
2023-01-18T06:47:43.643Z,99.70
2023-01-18T06:48:24.834Z,99.56
2023-01-18T06:49:04.901Z,99.62
2023-01-18T06:49:46.783Z,99.68
2023-01-18T06:50:27.871Z,99.97
2023-01-18T06:51:07.839Z,99.63
2023-01-18T06:51:47.864Z,100.00
2023-01-18T06:52:28.829Z,100.00
2023-01-18T06:53:08.834Z,100.00
2023-01-18T06:53:48.787Z,99.95
2023-01-18T06:54:31.849Z,100.00
2023-01-18T06:55:12.785Z,99.96
2023-01-18T06:56:05.117Z,100.00
2023-01-18T06:56:46.819Z,100.00
2023-01-18T06:57:26.863Z,99.85
2023-01-18T06:58:08.833Z,100.00
2023-01-18T06:58:48.922Z,100.00
2023-01-18T06:59:28.817Z,100.00
2023-01-18T07:00:09.876Z,100.00
2023-01-18T07:00:50.863Z,100.00
2023-01-18T07:01:32.965Z,100.00
2023-01-18T07:03:16.871Z,100.00
2023-01-18T07:03:50.884Z,100.00
2023-01-18T07:04:47.823Z,100.00
2023-01-18T07:05:22.868Z,100.00
2023-01-18T07:06:10.798Z,100.00
2023-01-18T07:06:44.858Z,100.00
2023-01-18T07:07:31.786Z,100.00
2023-01-18T07:08:06.065Z,100.00
2023-01-18T07:08:46.805Z,100.00
2023-01-18T07:09:27.352Z,100.00
2023-01-18T07:10:07.826Z,100.00
2023-01-18T07:10:47.845Z,100.00
2023-01-18T07:11:27.807Z,99.45
2023-01-18T07:12:08.070Z,99.68
2023-01-18T07:12:47.830Z,100.00
2023-01-18T07:13:28.852Z,99.80
2023-01-18T07:14:09.817Z,100.00
2023-01-18T07:14:50.198Z,100.00
2023-01-18T07:15:29.794Z,100.00
2023-01-18T07:16:17.409Z,99.92
2023-01-18T07:16:57.881Z,100.00
2023-01-18T07:17:38.838Z,99.92
2023-01-18T07:18:18.784Z,100.00
2023-01-18T07:19:01.610Z,100.00
2023-01-18T07:19:42.986Z,100.00
2023-01-18T07:20:25.821Z,100.00
2023-01-18T07:21:08.792Z,100.00
2023-01-18T07:21:49.673Z,100.00
2023-01-18T07:22:29.770Z,100.00
2023-01-18T07:23:10.894Z,100.00
2023-01-18T07:23:50.810Z,100.00
2023-01-18T07:24:30.819Z,100.00
2023-01-18T07:25:11.794Z,100.00
2023-01-18T07:25:51.810Z,99.98
2023-01-18T07:26:32.793Z,100.00
2023-01-18T07:27:12.961Z,99.79
2023-01-18T07:27:55.764Z,100.00
2023-01-18T07:28:41.811Z,100.00
2023-01-18T07:29:21.841Z,100.00
2023-01-18T07:30:02.835Z,100.00
2023-01-18T07:30:42.806Z,100.00
2023-01-18T07:31:25.184Z,100.00
2023-01-18T07:32:05.787Z,100.00
2023-01-18T07:32:46.806Z,99.90
2023-01-18T07:33:26.754Z,100.00
2023-01-18T07:34:07.158Z,100.00
2023-01-18T07:34:46.775Z,100.00
2023-01-18T07:35:28.009Z,99.80
2023-01-18T07:36:11.833Z,99.59
2023-01-18T07:36:51.886Z,100.00
2023-01-18T07:37:31.778Z,100.00
2023-01-18T07:38:11.830Z,99.73
2023-01-18T07:39:13.774Z,99.75
2023-01-18T07:40:07.762Z,99.07
2023-01-18T07:41:01.774Z,99.77
2023-01-18T07:41:42.800Z,99.88
2023-01-18T07:42:22.835Z,100.00
2023-01-18T07:43:04.751Z,100.00
2023-01-18T07:43:45.019Z,100.00
2023-01-18T07:44:24.777Z,100.00
2023-01-18T07:45:05.695Z,100.00
2023-01-18T07:45:45.747Z,100.00
2023-01-18T07:46:26.892Z,100.00
2023-01-18T07:47:06.757Z,100.00
2023-01-18T07:47:52.935Z,100.00
2023-01-18T07:48:33.774Z,100.00
2023-01-18T07:49:13.841Z,100.00
2023-01-18T07:49:53.741Z,100.00
2023-01-18T07:50:33.845Z,100.00
2023-01-18T07:51:16.763Z,100.00
2023-01-18T07:51:56.795Z,100.00
2023-01-18T07:52:37.766Z,100.00
2023-01-18T07:53:18.983Z,100.00
2023-01-18T07:54:01.735Z,100.00
2023-01-18T07:54:41.848Z,100.00
2023-01-18T07:55:21.756Z,100.00
2023-01-18T07:56:06.894Z,100.00
2023-01-18T07:56:46.746Z,100.00
2023-01-18T07:57:26.856Z,100.00
2023-01-18T07:58:07.763Z,100.00
2023-01-18T07:58:48.789Z,100.00
2023-01-18T07:59:28.738Z,100.00
2023-01-18T08:00:08.842Z,100.00
2023-01-18T08:00:48.755Z,100.00
2023-01-18T08:01:30.039Z,100.00
2023-01-18T08:02:10.788Z,100.00
2023-01-18T08:02:50.843Z,100.00
2023-01-18T08:03:31.798Z,100.00
2023-01-18T08:04:11.797Z,100.00
2023-01-18T08:04:56.740Z,100.00
2023-01-18T08:05:38.907Z,100.00
2023-01-18T08:06:19.752Z,100.00
2023-01-18T08:06:59.782Z,100.00
2023-01-18T08:07:40.735Z,100.00
2023-01-18T08:08:23.806Z,100.00
2023-01-18T08:09:03.793Z,100.00
2023-01-18T08:09:44.124Z,100.00
2023-01-18T08:10:24.722Z,100.00
2023-01-18T08:11:07.837Z,100.00
2023-01-18T08:11:47.747Z,100.00
2023-01-18T08:12:27.843Z,100.00
2023-01-18T08:13:08.718Z,100.00
2023-01-18T08:13:49.282Z,100.00
2023-01-18T08:14:30.721Z,100.00
2023-01-18T08:15:11.818Z,100.00
2023-01-18T08:15:51.786Z,100.00
2023-01-18T08:16:31.842Z,100.00
2023-01-18T08:17:12.710Z,100.00
2023-01-18T08:17:55.246Z,100.00
2023-01-18T08:18:35.755Z,100.00
2023-01-18T08:19:16.609Z,100.00
2023-01-18T08:19:56.722Z,100.00
2023-01-18T08:20:37.780Z,100.00
2023-01-18T08:21:19.747Z,100.00
2023-01-18T08:22:03.031Z,100.00
2023-01-18T08:22:43.743Z,100.00
2023-01-18T08:23:24.802Z,100.00
2023-01-18T08:24:04.817Z,100.00
2023-01-18T08:24:44.808Z,100.00
2023-01-18T08:25:24.719Z,100.00
2023-01-18T08:26:08.801Z,100.00
2023-01-18T08:26:49.703Z,100.00
2023-01-18T08:27:29.765Z,100.00
2023-01-18T08:28:11.731Z,100.00
2023-01-18T08:28:51.854Z,100.00
2023-01-18T08:29:31.756Z,100.00
2023-01-18T08:30:13.798Z,100.00
2023-01-18T08:30:55.736Z,100.00
2023-01-18T08:31:35.920Z,100.00
2023-01-18T08:32:15.700Z,100.00
2023-01-18T08:32:56.582Z,100.00
2023-01-18T08:33:36.724Z,100.00
2023-01-18T08:34:17.165Z,100.00
2023-01-18T08:34:56.711Z,100.00
2023-01-18T08:35:40.888Z,100.00
2023-01-18T08:36:27.752Z,100.00
2023-01-18T08:37:07.752Z,100.00
2023-01-18T08:37:47.712Z,100.00
2023-01-18T08:38:30.752Z,100.00
2023-01-18T08:39:11.716Z,100.00
2023-01-18T08:39:51.751Z,100.00
2023-01-18T08:40:32.718Z,100.00
2023-01-18T08:41:12.769Z,100.00
2023-01-18T08:41:53.792Z,100.00
2023-01-18T08:42:33.807Z,100.00
2023-01-18T08:43:14.701Z,100.00
2023-01-18T08:43:57.799Z,100.00
2023-01-18T08:44:37.694Z,100.00
2023-01-18T08:45:18.039Z,100.00
2023-01-18T08:45:57.738Z,100.00
2023-01-18T08:46:37.790Z,100.00
2023-01-18T08:47:18.729Z,100.00
2023-01-18T08:48:14.812Z,100.00
2023-01-18T08:49:03.731Z,100.00
2023-01-18T08:49:43.756Z,100.00
2023-01-18T08:50:23.678Z,100.00
2023-01-18T08:51:08.735Z,100.00
2023-01-18T08:51:49.691Z,100.00
2023-01-18T08:52:36.709Z,100.00
2023-01-18T08:53:30.695Z,100.00
2023-01-18T08:54:24.738Z,100.00
2023-01-18T08:55:20.673Z,100.00
2023-01-18T08:56:19.690Z,100.00
2023-01-18T08:57:14.706Z,100.00
2023-01-18T08:58:03.705Z,100.00
2023-01-18T08:58:38.733Z,100.00
2023-01-18T08:59:26.758Z,100.00
2023-01-18T09:00:00.746Z,100.00
2023-01-18T09:00:47.772Z,100.00
2023-01-18T09:01:23.632Z,100.00
2023-01-18T09:02:10.817Z,100.00
2023-01-18T09:02:44.799Z,100.00
2023-01-18T09:03:28.687Z,100.00
2023-01-18T09:04:09.091Z,100.00
2023-01-18T09:04:50.677Z,100.00
2023-01-18T09:05:31.722Z,100.00
2023-01-18T09:06:16.713Z,100.00
2023-01-18T09:06:56.748Z,100.00
2023-01-18T09:07:36.684Z,100.00
2023-01-18T09:08:17.922Z,100.00
2023-01-18T09:08:58.713Z,100.00
2023-01-18T09:09:38.709Z,100.00
2023-01-18T09:10:19.663Z,100.00
2023-01-18T09:10:59.698Z,100.00
2023-01-18T09:11:39.677Z,100.00
2023-01-18T09:12:19.781Z,100.00
2023-01-18T09:13:01.904Z,100.00
2023-01-18T09:13:54.613Z,100.00
2023-01-18T09:14:39.678Z,100.00
2023-01-18T09:15:19.728Z,100.00
2023-01-18T09:16:11.740Z,100.00
2023-01-18T09:16:52.754Z,100.00
2023-01-18T09:17:32.659Z,100.00
2023-01-18T09:18:12.737Z,100.00
2023-01-18T09:18:52.659Z,100.00
2023-01-18T09:19:32.939Z,100.00
2023-01-18T09:20:18.677Z,100.00
2023-01-18T09:20:59.727Z,100.00
2023-01-18T09:21:40.699Z,100.00
2023-01-18T09:22:20.713Z,100.00
2023-01-18T09:23:00.988Z,100.00
2023-01-18T09:23:45.740Z,100.00
2023-01-18T09:24:25.666Z,100.00
2023-01-18T09:25:05.862Z,100.00
2023-01-18T09:25:47.651Z,100.00
2023-01-18T09:26:30.385Z,100.00
2023-01-18T09:27:11.678Z,100.00
2023-01-18T09:27:52.785Z,100.00
2023-01-18T09:28:32.693Z,100.00
2023-01-18T09:29:12.695Z,100.00
2023-01-18T09:29:58.641Z,100.00
2023-01-18T09:30:39.719Z,100.00
2023-01-18T09:31:19.773Z,100.00
2023-01-18T09:32:00.230Z,100.00